sensor_id;sensor_type;location;lat;lon;timestamp;P1;durP1;ratioP1;P2;durP2;ratioP2
17306;SDS011;8771;48.048;7.682;2024-01-11T00:02:57;23.87;;;13.67;;
17306;SDS011;8771;48.048;7.682;2024-01-11T00:08:00;29.83;;;15.40;;
17306;SDS011;8771;48.048;7.682;2024-01-11T00:13:04;27.97;;;15.50;;
17306;SDS011;8771;48.048;7.682;2024-01-11T00:18:07;22.50;;;14.43;;
17306;SDS011;8771;48.048;7.682;2024-01-11T00:23:10;22.33;;;14.73;;
17306;SDS011;8771;48.048;7.682;2024-01-11T00:28:14;25.37;;;15.60;;
17306;SDS011;8771;48.048;7.682;2024-01-11T00:33:17;25.97;;;15.30;;
17306;SDS011;8771;48.048;7.682;2024-01-11T00:38:20;21.67;;;14.20;;
17306;SDS011;8771;48.048;7.682;2024-01-11T00:43:24;22.77;;;13.73;;
17306;SDS011;8771;48.048;7.682;2024-01-11T00:48:27;22.87;;;13.40;;
17306;SDS011;8771;48.048;7.682;2024-01-11T00:53:29;23.93;;;15.10;;
17306;SDS011;8771;48.048;7.682;2024-01-11T00:58:33;21.57;;;14.70;;
17306;SDS011;8771;48.048;7.682;2024-01-11T01:03:36;25.23;;;14.97;;
17306;SDS011;8771;48.048;7.682;2024-01-11T01:08:39;23.63;;;13.57;;
17306;SDS011;8771;48.048;7.682;2024-01-11T01:13:44;20.77;;;13.50;;
17306;SDS011;8771;48.048;7.682;2024-01-11T01:18:46;21.37;;;13.23;;
17306;SDS011;8771;48.048;7.682;2024-01-11T01:23:49;22.77;;;13.10;;
17306;SDS011;8771;48.048;7.682;2024-01-11T01:28:54;24.30;;;14.27;;
17306;SDS011;8771;48.048;7.682;2024-01-11T01:33:57;20.17;;;12.80;;
17306;SDS011;8771;48.048;7.682;2024-01-11T01:38:59;24.77;;;15.10;;
17306;SDS011;8771;48.048;7.682;2024-01-11T01:44:04;24.87;;;15.03;;
17306;SDS011;8771;48.048;7.682;2024-01-11T01:49:07;22.87;;;14.40;;
17306;SDS011;8771;48.048;7.682;2024-01-11T01:54:10;20.87;;;13.53;;
17306;SDS011;8771;48.048;7.682;2024-01-11T01:59:14;25.53;;;15.33;;
17306;SDS011;8771;48.048;7.682;2024-01-11T02:04:18;21.17;;;13.00;;
17306;SDS011;8771;48.048;7.682;2024-01-11T02:09:21;21.90;;;13.70;;
17306;SDS011;8771;48.048;7.682;2024-01-11T02:14:27;22.27;;;13.50;;
17306;SDS011;8771;48.048;7.682;2024-01-11T02:19:30;21.47;;;13.60;;
17306;SDS011;8771;48.048;7.682;2024-01-11T02:24:36;21.73;;;13.50;;
17306;SDS011;8771;48.048;7.682;2024-01-11T02:29:39;22.57;;;13.13;;
17306;SDS011;8771;48.048;7.682;2024-01-11T02:34:42;20.47;;;13.03;;
17306;SDS011;8771;48.048;7.682;2024-01-11T02:39:46;23.23;;;13.00;;
17306;SDS011;8771;48.048;7.682;2024-01-11T02:44:49;20.07;;;12.77;;
17306;SDS011;8771;48.048;7.682;2024-01-11T02:49:52;22.80;;;13.57;;
17306;SDS011;8771;48.048;7.682;2024-01-11T02:54:57;26.73;;;13.43;;
17306;SDS011;8771;48.048;7.682;2024-01-11T02:59:59;20.97;;;12.77;;
17306;SDS011;8771;48.048;7.682;2024-01-11T03:05:02;21.27;;;13.40;;
17306;SDS011;8771;48.048;7.682;2024-01-11T03:10:07;19.83;;;12.87;;
17306;SDS011;8771;48.048;7.682;2024-01-11T03:15:10;19.87;;;12.50;;
17306;SDS011;8771;48.048;7.682;2024-01-11T03:20:13;20.00;;;12.57;;
17306;SDS011;8771;48.048;7.682;2024-01-11T03:25:18;20.23;;;13.53;;
17306;SDS011;8771;48.048;7.682;2024-01-11T03:30:21;16.90;;;11.13;;
17306;SDS011;8771;48.048;7.682;2024-01-11T03:35:24;19.63;;;13.03;;
17306;SDS011;8771;48.048;7.682;2024-01-11T03:40:28;22.90;;;14.30;;
17306;SDS011;8771;48.048;7.682;2024-01-11T03:45:31;22.63;;;13.77;;
17306;SDS011;8771;48.048;7.682;2024-01-11T03:50:34;19.33;;;11.83;;
17306;SDS011;8771;48.048;7.682;2024-01-11T03:55:38;21.13;;;13.40;;
17306;SDS011;8771;48.048;7.682;2024-01-11T04:00:41;22.63;;;12.43;;
17306;SDS011;8771;48.048;7.682;2024-01-11T04:05:44;17.57;;;12.13;;
17306;SDS011;8771;48.048;7.682;2024-01-11T04:10:49;18.87;;;13.10;;
17306;SDS011;8771;48.048;7.682;2024-01-11T04:15:52;21.50;;;13.00;;
17306;SDS011;8771;48.048;7.682;2024-01-11T04:20:55;21.17;;;13.47;;
17306;SDS011;8771;48.048;7.682;2024-01-11T04:25:59;22.20;;;12.73;;
17306;SDS011;8771;48.048;7.682;2024-01-11T04:31:02;21.47;;;13.40;;
17306;SDS011;8771;48.048;7.682;2024-01-11T04:36:05;22.70;;;13.80;;
17306;SDS011;8771;48.048;7.682;2024-01-11T04:41:09;20.10;;;14.00;;
17306;SDS011;8771;48.048;7.682;2024-01-11T04:46:13;20.33;;;12.63;;
17306;SDS011;8771;48.048;7.682;2024-01-11T04:51:17;22.10;;;12.93;;
17306;SDS011;8771;48.048;7.682;2024-01-11T04:56:21;20.80;;;12.03;;
17306;SDS011;8771;48.048;7.682;2024-01-11T05:01:24;21.87;;;13.23;;
17306;SDS011;8771;48.048;7.682;2024-01-11T05:06:27;21.63;;;12.87;;
17306;SDS011;8771;48.048;7.682;2024-01-11T05:11:32;19.87;;;12.97;;
17306;SDS011;8771;48.048;7.682;2024-01-11T05:16:35;20.30;;;12.90;;
17306;SDS011;8771;48.048;7.682;2024-01-11T05:21:37;20.60;;;12.90;;
17306;SDS011;8771;48.048;7.682;2024-01-11T05:26:41;23.93;;;13.30;;
17306;SDS011;8771;48.048;7.682;2024-01-11T05:31:44;23.77;;;13.00;;
17306;SDS011;8771;48.048;7.682;2024-01-11T05:36:47;25.50;;;13.40;;
17306;SDS011;8771;48.048;7.682;2024-01-11T05:41:51;21.80;;;13.40;;
17306;SDS011;8771;48.048;7.682;2024-01-11T05:46:54;18.90;;;11.37;;
17306;SDS011;8771;48.048;7.682;2024-01-11T05:51:57;23.40;;;13.30;;
17306;SDS011;8771;48.048;7.682;2024-01-11T05:57:02;22.40;;;13.50;;
17306;SDS011;8771;48.048;7.682;2024-01-11T06:02:05;25.33;;;15.87;;
17306;SDS011;8771;48.048;7.682;2024-01-11T06:07:08;20.60;;;13.23;;
17306;SDS011;8771;48.048;7.682;2024-01-11T06:12:11;21.73;;;13.03;;
17306;SDS011;8771;48.048;7.682;2024-01-11T06:17:15;21.63;;;12.77;;
17306;SDS011;8771;48.048;7.682;2024-01-11T06:22:18;22.33;;;14.00;;
17306;SDS011;8771;48.048;7.682;2024-01-11T06:27:22;26.93;;;14.90;;
17306;SDS011;8771;48.048;7.682;2024-01-11T06:32:25;21.97;;;13.57;;
17306;SDS011;8771;48.048;7.682;2024-01-11T06:37:28;24.30;;;14.97;;
17306;SDS011;8771;48.048;7.682;2024-01-11T06:42:32;25.80;;;14.90;;
17306;SDS011;8771;48.048;7.682;2024-01-11T06:47:35;25.27;;;15.07;;
17306;SDS011;8771;48.048;7.682;2024-01-11T06:52:38;25.40;;;14.67;;
17306;SDS011;8771;48.048;7.682;2024-01-11T06:57:42;21.43;;;13.87;;
17306;SDS011;8771;48.048;7.682;2024-01-11T07:02:48;18.60;;;13.03;;
17306;SDS011;8771;48.048;7.682;2024-01-11T07:07:51;25.60;;;15.37;;
17306;SDS011;8771;48.048;7.682;2024-01-11T07:12:56;29.53;;;16.40;;
17306;SDS011;8771;48.048;7.682;2024-01-11T07:18:00;22.80;;;16.07;;
17306;SDS011;8771;48.048;7.682;2024-01-11T07:23:03;25.20;;;15.83;;
17306;SDS011;8771;48.048;7.682;2024-01-11T07:28:07;21.90;;;14.37;;
17306;SDS011;8771;48.048;7.682;2024-01-11T07:33:10;28.33;;;15.80;;
17306;SDS011;8771;48.048;7.682;2024-01-11T07:38:13;25.07;;;15.63;;
17306;SDS011;8771;48.048;7.682;2024-01-11T07:43:18;21.47;;;14.90;;
17306;SDS011;8771;48.048;7.682;2024-01-11T07:48:21;22.10;;;13.63;;
17306;SDS011;8771;48.048;7.682;2024-01-11T07:53:24;26.20;;;15.30;;
17306;SDS011;8771;48.048;7.682;2024-01-11T07:58:28;25.67;;;14.07;;
17306;SDS011;8771;48.048;7.682;2024-01-11T08:03:31;26.57;;;16.30;;
17306;SDS011;8771;48.048;7.682;2024-01-11T08:08:36;25.17;;;15.60;;
17306;SDS011;8771;48.048;7.682;2024-01-11T08:13:41;27.43;;;16.60;;
17306;SDS011;8771;48.048;7.682;2024-01-11T08:18:44;30.00;;;18.07;;
17306;SDS011;8771;48.048;7.682;2024-01-11T08:23:48;27.30;;;16.53;;
17306;SDS011;8771;48.048;7.682;2024-01-11T08:28:52;28.30;;;16.50;;
17306;SDS011;8771;48.048;7.682;2024-01-11T08:33:55;29.70;;;18.27;;
17306;SDS011;8771;48.048;7.682;2024-01-11T08:38:58;32.00;;;18.77;;
17306;SDS011;8771;48.048;7.682;2024-01-11T08:44:02;31.30;;;20.90;;
17306;SDS011;8771;48.048;7.682;2024-01-11T08:49:06;38.60;;;22.53;;
17306;SDS011;8771;48.048;7.682;2024-01-11T08:54:08;34.20;;;20.47;;
17306;SDS011;8771;48.048;7.682;2024-01-11T08:59:13;33.23;;;20.80;;
17306;SDS011;8771;48.048;7.682;2024-01-11T09:04:15;31.77;;;19.37;;
17306;SDS011;8771;48.048;7.682;2024-01-11T09:09:17;38.10;;;21.10;;
17306;SDS011;8771;48.048;7.682;2024-01-11T09:14:21;31.00;;;20.27;;
17306;SDS011;8771;48.048;7.682;2024-01-11T09:19:23;29.40;;;19.03;;
17306;SDS011;8771;48.048;7.682;2024-01-11T09:24:25;32.90;;;19.83;;
17306;SDS011;8771;48.048;7.682;2024-01-11T09:29:29;33.67;;;20.30;;
17306;SDS011;8771;48.048;7.682;2024-01-11T09:34:31;85.20;;;38.10;;
17306;SDS011;8771;48.048;7.682;2024-01-11T09:39:33;33.53;;;20.70;;
17306;SDS011;8771;48.048;7.682;2024-01-11T09:44:36;28.73;;;19.47;;
17306;SDS011;8771;48.048;7.682;2024-01-11T09:49:39;33.43;;;20.53;;
17306;SDS011;8771;48.048;7.682;2024-01-11T09:54:43;36.33;;;21.73;;
17306;SDS011;8771;48.048;7.682;2024-01-11T09:59:46;33.90;;;20.80;;
17306;SDS011;8771;48.048;7.682;2024-01-11T10:04:51;36.03;;;21.63;;
17306;SDS011;8771;48.048;7.682;2024-01-11T10:09:53;30.50;;;20.20;;
17306;SDS011;8771;48.048;7.682;2024-01-11T10:14:56;30.83;;;21.07;;
17306;SDS011;8771;48.048;7.682;2024-01-11T10:20:07;33.27;;;20.57;;
17306;SDS011;8771;48.048;7.682;2024-01-11T10:25:11;34.37;;;21.73;;
17306;SDS011;8771;48.048;7.682;2024-01-11T10:30:16;30.83;;;20.57;;
17306;SDS011;8771;48.048;7.682;2024-01-11T10:35:19;34.50;;;20.93;;
17306;SDS011;8771;48.048;7.682;2024-01-11T10:40:22;30.03;;;20.00;;
17306;SDS011;8771;48.048;7.682;2024-01-11T10:45:27;29.27;;;19.53;;
17306;SDS011;8771;48.048;7.682;2024-01-11T10:50:29;35.83;;;22.13;;
17306;SDS011;8771;48.048;7.682;2024-01-11T10:55:34;37.17;;;20.67;;
17306;SDS011;8771;48.048;7.682;2024-01-11T11:00:38;29.97;;;21.70;;
17306;SDS011;8771;48.048;7.682;2024-01-11T11:05:40;31.57;;;20.27;;
17306;SDS011;8771;48.048;7.682;2024-01-11T11:10:44;30.00;;;20.10;;
17306;SDS011;8771;48.048;7.682;2024-01-11T11:15:49;30.47;;;20.77;;
17306;SDS011;8771;48.048;7.682;2024-01-11T11:20:51;29.50;;;19.97;;
17306;SDS011;8771;48.048;7.682;2024-01-11T11:25:54;30.67;;;20.30;;
17306;SDS011;8771;48.048;7.682;2024-01-11T11:30:58;31.77;;;22.00;;
17306;SDS011;8771;48.048;7.682;2024-01-11T11:36:03;30.33;;;20.63;;
17306;SDS011;8771;48.048;7.682;2024-01-11T11:41:05;32.30;;;21.27;;
17306;SDS011;8771;48.048;7.682;2024-01-11T11:46:09;28.87;;;20.30;;
17306;SDS011;8771;48.048;7.682;2024-01-11T11:51:12;34.30;;;23.00;;
17306;SDS011;8771;48.048;7.682;2024-01-11T11:56:16;34.60;;;23.03;;
17306;SDS011;8771;48.048;7.682;2024-01-11T12:01:21;30.47;;;20.40;;
17306;SDS011;8771;48.048;7.682;2024-01-11T12:06:23;32.43;;;21.73;;
17306;SDS011;8771;48.048;7.682;2024-01-11T12:11:27;32.23;;;21.87;;
17306;SDS011;8771;48.048;7.682;2024-01-11T12:16:32;30.80;;;20.83;;
17306;SDS011;8771;48.048;7.682;2024-01-11T12:21:34;31.03;;;22.33;;
17306;SDS011;8771;48.048;7.682;2024-01-11T12:26:36;33.37;;;23.17;;
17306;SDS011;8771;48.048;7.682;2024-01-11T12:31:40;31.77;;;22.87;;
17306;SDS011;8771;48.048;7.682;2024-01-11T12:36:42;31.47;;;21.97;;
17306;SDS011;8771;48.048;7.682;2024-01-11T12:41:44;35.63;;;22.83;;
17306;SDS011;8771;48.048;7.682;2024-01-11T12:46:48;33.13;;;22.67;;
17306;SDS011;8771;48.048;7.682;2024-01-11T12:51:50;30.90;;;21.43;;
17306;SDS011;8771;48.048;7.682;2024-01-11T12:56:53;32.17;;;22.77;;
17306;SDS011;8771;48.048;7.682;2024-01-11T13:01:56;33.70;;;22.17;;
17306;SDS011;8771;48.048;7.682;2024-01-11T13:07:00;32.47;;;22.50;;
17306;SDS011;8771;48.048;7.682;2024-01-11T13:12:02;30.90;;;21.93;;
17306;SDS011;8771;48.048;7.682;2024-01-11T13:17:07;33.50;;;22.43;;
17306;SDS011;8771;48.048;7.682;2024-01-11T13:22:09;37.57;;;22.07;;
17306;SDS011;8771;48.048;7.682;2024-01-11T13:27:11;32.30;;;22.37;;
17306;SDS011;8771;48.048;7.682;2024-01-11T13:32:14;35.27;;;22.83;;
17306;SDS011;8771;48.048;7.682;2024-01-11T13:37:16;31.00;;;21.97;;
17306;SDS011;8771;48.048;7.682;2024-01-11T13:42:18;32.17;;;22.97;;
17306;SDS011;8771;48.048;7.682;2024-01-11T13:47:21;34.50;;;23.33;;
17306;SDS011;8771;48.048;7.682;2024-01-11T13:52:23;34.43;;;23.27;;
17306;SDS011;8771;48.048;7.682;2024-01-11T13:57:25;36.00;;;23.33;;
17306;SDS011;8771;48.048;7.682;2024-01-11T14:02:29;32.67;;;22.07;;
17306;SDS011;8771;48.048;7.682;2024-01-11T14:07:32;33.77;;;22.83;;
17306;SDS011;8771;48.048;7.682;2024-01-11T14:12:35;30.03;;;22.13;;
17306;SDS011;8771;48.048;7.682;2024-01-11T14:17:40;38.80;;;25.83;;
17306;SDS011;8771;48.048;7.682;2024-01-11T14:22:44;50.80;;;31.23;;
17306;SDS011;8771;48.048;7.682;2024-01-11T14:27:50;40.40;;;27.33;;
17306;SDS011;8771;48.048;7.682;2024-01-11T14:32:55;33.07;;;24.33;;
17306;SDS011;8771;48.048;7.682;2024-01-11T14:37:58;36.10;;;23.63;;
17306;SDS011;8771;48.048;7.682;2024-01-11T14:43:01;32.97;;;23.10;;
17306;SDS011;8771;48.048;7.682;2024-01-11T14:48:07;35.57;;;25.00;;
17306;SDS011;8771;48.048;7.682;2024-01-11T14:53:09;38.70;;;25.73;;
17306;SDS011;8771;48.048;7.682;2024-01-11T14:58:12;39.87;;;26.07;;
17306;SDS011;8771;48.048;7.682;2024-01-11T15:03:17;36.03;;;25.83;;
17306;SDS011;8771;48.048;7.682;2024-01-11T15:08:20;38.17;;;25.40;;
17306;SDS011;8771;48.048;7.682;2024-01-11T15:13:23;35.43;;;25.03;;
17306;SDS011;8771;48.048;7.682;2024-01-11T15:18:27;36.27;;;24.60;;
17306;SDS011;8771;48.048;7.682;2024-01-11T15:23:30;35.47;;;24.53;;
17306;SDS011;8771;48.048;7.682;2024-01-11T15:28:33;32.40;;;23.53;;
17306;SDS011;8771;48.048;7.682;2024-01-11T15:33:38;35.67;;;23.37;;
17306;SDS011;8771;48.048;7.682;2024-01-11T15:38:40;32.77;;;23.37;;
17306;SDS011;8771;48.048;7.682;2024-01-11T15:43:42;33.90;;;23.93;;
17306;SDS011;8771;48.048;7.682;2024-01-11T15:48:48;35.33;;;23.67;;
17306;SDS011;8771;48.048;7.682;2024-01-11T15:53:50;33.27;;;23.53;;
17306;SDS011;8771;48.048;7.682;2024-01-11T15:58:52;36.80;;;24.60;;
17306;SDS011;8771;48.048;7.682;2024-01-11T16:03:55;34.00;;;25.30;;
17306;SDS011;8771;48.048;7.682;2024-01-11T16:08:57;36.40;;;23.80;;
17306;SDS011;8771;48.048;7.682;2024-01-11T16:13:59;34.80;;;23.63;;
17306;SDS011;8771;48.048;7.682;2024-01-11T16:19:03;40.37;;;25.90;;
17306;SDS011;8771;48.048;7.682;2024-01-11T16:24:05;34.80;;;23.23;;
17306;SDS011;8771;48.048;7.682;2024-01-11T16:29:07;37.17;;;23.47;;
17306;SDS011;8771;48.048;7.682;2024-01-11T16:34:10;35.37;;;23.97;;
17306;SDS011;8771;48.048;7.682;2024-01-11T16:39:13;35.10;;;23.43;;
17306;SDS011;8771;48.048;7.682;2024-01-11T16:44:15;34.30;;;23.30;;
17306;SDS011;8771;48.048;7.682;2024-01-11T16:49:18;37.13;;;24.53;;
17306;SDS011;8771;48.048;7.682;2024-01-11T16:54:22;38.23;;;24.47;;
17306;SDS011;8771;48.048;7.682;2024-01-11T16:59:24;40.10;;;26.07;;
17306;SDS011;8771;48.048;7.682;2024-01-11T17:04:28;40.63;;;26.57;;
17306;SDS011;8771;48.048;7.682;2024-01-11T17:09:30;37.40;;;24.00;;
17306;SDS011;8771;48.048;7.682;2024-01-11T17:14:32;43.53;;;27.40;;
17306;SDS011;8771;48.048;7.682;2024-01-11T17:19:36;37.97;;;23.50;;
17306;SDS011;8771;48.048;7.682;2024-01-11T17:24:40;37.40;;;24.27;;
17306;SDS011;8771;48.048;7.682;2024-01-11T17:29:43;38.00;;;25.00;;
17306;SDS011;8771;48.048;7.682;2024-01-11T17:34:48;36.73;;;24.03;;
17306;SDS011;8771;48.048;7.682;2024-01-11T17:39:54;38.67;;;24.60;;
17306;SDS011;8771;48.048;7.682;2024-01-11T17:44:57;38.93;;;24.80;;
17306;SDS011;8771;48.048;7.682;2024-01-11T17:50:01;39.50;;;25.80;;
17306;SDS011;8771;48.048;7.682;2024-01-11T17:55:05;41.67;;;27.53;;
17306;SDS011;8771;48.048;7.682;2024-01-11T18:00:10;42.27;;;25.23;;
17306;SDS011;8771;48.048;7.682;2024-01-11T18:05:15;43.10;;;27.23;;
17306;SDS011;8771;48.048;7.682;2024-01-11T18:10:20;43.50;;;27.70;;
17306;SDS011;8771;48.048;7.682;2024-01-11T18:15:21;41.10;;;25.47;;
17306;SDS011;8771;48.048;7.682;2024-01-11T18:20:25;43.37;;;27.07;;
17306;SDS011;8771;48.048;7.682;2024-01-11T18:25:29;39.73;;;24.47;;
17306;SDS011;8771;48.048;7.682;2024-01-11T18:30:31;40.13;;;25.53;;
17306;SDS011;8771;48.048;7.682;2024-01-11T18:35:34;40.00;;;25.17;;
17306;SDS011;8771;48.048;7.682;2024-01-11T18:40:36;37.57;;;25.33;;
17306;SDS011;8771;48.048;7.682;2024-01-11T18:45:38;40.33;;;24.23;;
17306;SDS011;8771;48.048;7.682;2024-01-11T18:50:41;36.20;;;24.27;;
17306;SDS011;8771;48.048;7.682;2024-01-11T18:55:44;35.23;;;23.70;;
17306;SDS011;8771;48.048;7.682;2024-01-11T19:00:46;42.07;;;24.50;;
17306;SDS011;8771;48.048;7.682;2024-01-11T19:05:51;39.73;;;25.20;;
17306;SDS011;8771;48.048;7.682;2024-01-11T19:10:53;80.80;;;43.30;;
17306;SDS011;8771;48.048;7.682;2024-01-11T19:15:56;49.17;;;30.37;;
17306;SDS011;8771;48.048;7.682;2024-01-11T19:21:01;48.27;;;29.40;;
17306;SDS011;8771;48.048;7.682;2024-01-11T19:26:05;47.17;;;27.03;;
17306;SDS011;8771;48.048;7.682;2024-01-11T19:31:08;35.90;;;23.97;;
17306;SDS011;8771;48.048;7.682;2024-01-11T19:36:12;39.57;;;24.27;;
17306;SDS011;8771;48.048;7.682;2024-01-11T19:41:19;38.03;;;22.77;;
17306;SDS011;8771;48.048;7.682;2024-01-11T19:46:22;36.13;;;22.80;;
17306;SDS011;8771;48.048;7.682;2024-01-11T19:51:25;33.23;;;22.27;;
17306;SDS011;8771;48.048;7.682;2024-01-11T19:56:27;37.83;;;23.07;;
17306;SDS011;8771;48.048;7.682;2024-01-11T20:01:33;37.53;;;23.70;;
17306;SDS011;8771;48.048;7.682;2024-01-11T20:06:37;40.60;;;24.80;;
17306;SDS011;8771;48.048;7.682;2024-01-11T20:11:40;40.83;;;25.10;;
17306;SDS011;8771;48.048;7.682;2024-01-11T20:16:43;38.33;;;23.50;;
17306;SDS011;8771;48.048;7.682;2024-01-11T20:21:47;40.10;;;23.97;;
17306;SDS011;8771;48.048;7.682;2024-01-11T20:26:51;35.93;;;22.73;;
17306;SDS011;8771;48.048;7.682;2024-01-11T20:31:54;35.03;;;22.60;;
17306;SDS011;8771;48.048;7.682;2024-01-11T20:36:59;34.37;;;20.97;;
17306;SDS011;8771;48.048;7.682;2024-01-11T20:42:02;35.73;;;22.07;;
17306;SDS011;8771;48.048;7.682;2024-01-11T20:47:05;36.27;;;22.07;;
17306;SDS011;8771;48.048;7.682;2024-01-11T20:52:09;39.13;;;22.33;;
17306;SDS011;8771;48.048;7.682;2024-01-11T20:57:11;39.60;;;23.40;;
17306;SDS011;8771;48.048;7.682;2024-01-11T21:02:15;39.43;;;22.53;;
17306;SDS011;8771;48.048;7.682;2024-01-11T21:07:19;37.13;;;20.80;;
17306;SDS011;8771;48.048;7.682;2024-01-11T21:12:22;34.40;;;20.70;;
17306;SDS011;8771;48.048;7.682;2024-01-11T21:17:28;33.13;;;20.20;;
17306;SDS011;8771;48.048;7.682;2024-01-11T21:22:32;36.03;;;22.17;;
17306;SDS011;8771;48.048;7.682;2024-01-11T21:27:35;37.60;;;22.03;;
17306;SDS011;8771;48.048;7.682;2024-01-11T21:32:38;39.43;;;22.77;;
17306;SDS011;8771;48.048;7.682;2024-01-11T21:37:42;39.13;;;22.93;;
17306;SDS011;8771;48.048;7.682;2024-01-11T21:42:46;34.40;;;22.30;;
17306;SDS011;8771;48.048;7.682;2024-01-11T21:47:49;40.43;;;24.10;;
17306;SDS011;8771;48.048;7.682;2024-01-11T21:52:53;44.50;;;25.07;;
17306;SDS011;8771;48.048;7.682;2024-01-11T21:57:56;40.47;;;24.43;;
17306;SDS011;8771;48.048;7.682;2024-01-11T22:02:59;43.63;;;24.37;;
17306;SDS011;8771;48.048;7.682;2024-01-11T22:08:06;41.20;;;25.17;;
17306;SDS011;8771;48.048;7.682;2024-01-11T22:13:10;43.17;;;24.63;;
17306;SDS011;8771;48.048;7.682;2024-01-11T22:18:13;41.33;;;24.40;;
17306;SDS011;8771;48.048;7.682;2024-01-11T22:23:18;38.87;;;23.17;;
17306;SDS011;8771;48.048;7.682;2024-01-11T22:28:22;45.30;;;23.67;;
17306;SDS011;8771;48.048;7.682;2024-01-11T22:33:26;38.87;;;23.53;;
17306;SDS011;8771;48.048;7.682;2024-01-11T22:38:31;43.80;;;23.90;;
17306;SDS011;8771;48.048;7.682;2024-01-11T22:43:34;38.23;;;24.73;;
17306;SDS011;8771;48.048;7.682;2024-01-11T22:48:38;36.07;;;23.20;;
17306;SDS011;8771;48.048;7.682;2024-01-11T22:53:44;41.77;;;24.80;;
17306;SDS011;8771;48.048;7.682;2024-01-11T22:58:47;41.53;;;23.70;;
17306;SDS011;8771;48.048;7.682;2024-01-11T23:03:50;38.63;;;22.83;;
17306;SDS011;8771;48.048;7.682;2024-01-11T23:08:55;40.20;;;23.37;;
17306;SDS011;8771;48.048;7.682;2024-01-11T23:13:58;40.63;;;23.37;;
17306;SDS011;8771;48.048;7.682;2024-01-11T23:19:01;42.37;;;23.93;;
17306;SDS011;8771;48.048;7.682;2024-01-11T23:24:06;39.73;;;22.93;;
17306;SDS011;8771;48.048;7.682;2024-01-11T23:29:09;36.00;;;22.73;;
17306;SDS011;8771;48.048;7.682;2024-01-11T23:34:12;40.80;;;22.17;;
17306;SDS011;8771;48.048;7.682;2024-01-11T23:39:16;41.90;;;24.07;;
17306;SDS011;8771;48.048;7.682;2024-01-11T23:44:19;42.23;;;25.20;;
17306;SDS011;8771;48.048;7.682;2024-01-11T23:49:22;43.53;;;25.23;;
17306;SDS011;8771;48.048;7.682;2024-01-11T23:54:26;39.40;;;23.67;;
17306;SDS011;8771;48.048;7.682;2024-01-11T23:59:29;41.90;;;25.07;;
